sensor_id;sensor_type;location;lat;lon;timestamp;pressure;altitude;pressure_sealevel;temperature
20092;BMP180;10205;49.678;6.560;2023-04-15T00:00:38;99008.00;;;15.30
20092;BMP180;10205;49.678;6.560;2023-04-15T00:03:05;99010.00;;;15.20
20092;BMP180;10205;49.678;6.560;2023-04-15T00:05:33;98999.00;;;15.20
20092;BMP180;10205;49.678;6.560;2023-04-15T00:08:02;99007.00;;;15.20
20092;BMP180;10205;49.678;6.560;2023-04-15T00:10:29;99009.00;;;15.10
20092;BMP180;10205;49.678;6.560;2023-04-15T00:12:58;98992.00;;;15.10
20092;BMP180;10205;49.678;6.560;2023-04-15T00:15:25;99005.00;;;15.10
20092;BMP180;10205;49.678;6.560;2023-04-15T00:17:55;99002.00;;;15.10
20092;BMP180;10205;49.678;6.560;2023-04-15T00:20:23;99009.00;;;15.00
20092;BMP180;10205;49.678;6.560;2023-04-15T00:22:50;98996.00;;;15.00
20092;BMP180;10205;49.678;6.560;2023-04-15T00:25:21;98993.00;;;14.90
20092;BMP180;10205;49.678;6.560;2023-04-15T00:27:48;98995.00;;;14.90
20092;BMP180;10205;49.678;6.560;2023-04-15T00:30:18;98994.00;;;14.90
20092;BMP180;10205;49.678;6.560;2023-04-15T00:32:45;98995.00;;;14.90
20092;BMP180;10205;49.678;6.560;2023-04-15T00:35:13;98978.00;;;14.90
20092;BMP180;10205;49.678;6.560;2023-04-15T00:37:41;98999.00;;;14.80
20092;BMP180;10205;49.678;6.560;2023-04-15T00:40:12;98995.00;;;14.80
20092;BMP180;10205;49.678;6.560;2023-04-15T00:42:40;98992.00;;;14.80
20092;BMP180;10205;49.678;6.560;2023-04-15T00:45:09;99005.00;;;14.70
20092;BMP180;10205;49.678;6.560;2023-04-15T00:47:38;98983.00;;;14.70
20092;BMP180;10205;49.678;6.560;2023-04-15T00:50:08;98991.00;;;14.70
20092;BMP180;10205;49.678;6.560;2023-04-15T00:52:36;98976.00;;;14.70
20092;BMP180;10205;49.678;6.560;2023-04-15T00:55:05;98981.00;;;14.60
20092;BMP180;10205;49.678;6.560;2023-04-15T00:57:32;98997.00;;;14.60
20092;BMP180;10205;49.678;6.560;2023-04-15T01:00:01;98986.00;;;14.60
20092;BMP180;10205;49.678;6.560;2023-04-15T01:02:30;98968.00;;;14.60
20092;BMP180;10205;49.678;6.560;2023-04-15T01:04:58;98993.00;;;14.50
20092;BMP180;10205;49.678;6.560;2023-04-15T01:07:25;98994.00;;;14.50
20092;BMP180;10205;49.678;6.560;2023-04-15T01:09:52;98974.00;;;14.50
20092;BMP180;10205;49.678;6.560;2023-04-15T01:12:20;98974.00;;;14.50
20092;BMP180;10205;49.678;6.560;2023-04-15T01:14:47;98971.00;;;14.50
20092;BMP180;10205;49.678;6.560;2023-04-15T01:17:16;98980.00;;;14.40
20092;BMP180;10205;49.678;6.560;2023-04-15T01:19:43;98970.00;;;14.40
20092;BMP180;10205;49.678;6.560;2023-04-15T01:22:11;98969.00;;;14.40
20092;BMP180;10205;49.678;6.560;2023-04-15T01:24:40;98980.00;;;14.40
20092;BMP180;10205;49.678;6.560;2023-04-15T01:27:10;98974.00;;;14.30
20092;BMP180;10205;49.678;6.560;2023-04-15T01:29:38;98975.00;;;14.30
20092;BMP180;10205;49.678;6.560;2023-04-15T01:32:06;98973.00;;;14.30
20092;BMP180;10205;49.678;6.560;2023-04-15T01:34:33;98971.00;;;14.30
20092;BMP180;10205;49.678;6.560;2023-04-15T01:37:00;98970.00;;;14.30
20092;BMP180;10205;49.678;6.560;2023-04-15T01:39:28;98963.00;;;14.20
20092;BMP180;10205;49.678;6.560;2023-04-15T01:41:55;98970.00;;;14.20
20092;BMP180;10205;49.678;6.560;2023-04-15T01:44:24;98966.00;;;14.20
20092;BMP180;10205;49.678;6.560;2023-04-15T01:46:52;98974.00;;;14.20
20092;BMP180;10205;49.678;6.560;2023-04-15T01:49:19;98970.00;;;14.20
20092;BMP180;10205;49.678;6.560;2023-04-15T01:51:47;98964.00;;;14.10
20092;BMP180;10205;49.678;6.560;2023-04-15T01:54:14;98960.00;;;14.10
20092;BMP180;10205;49.678;6.560;2023-04-15T01:56:41;98964.00;;;14.10
20092;BMP180;10205;49.678;6.560;2023-04-15T01:59:08;98965.00;;;14.10
20092;BMP180;10205;49.678;6.560;2023-04-15T02:01:37;98964.00;;;14.10
20092;BMP180;10205;49.678;6.560;2023-04-15T02:04:04;98958.00;;;14.10
20092;BMP180;10205;49.678;6.560;2023-04-15T02:06:32;98965.00;;;14.00
20092;BMP180;10205;49.678;6.560;2023-04-15T02:08:59;98962.00;;;14.00
20092;BMP180;10205;49.678;6.560;2023-04-15T02:11:27;98956.00;;;14.00
20092;BMP180;10205;49.678;6.560;2023-04-15T02:13:54;98952.00;;;14.00
20092;BMP180;10205;49.678;6.560;2023-04-15T02:16:21;98952.00;;;14.00
20092;BMP180;10205;49.678;6.560;2023-04-15T02:18:52;98953.00;;;14.00
20092;BMP180;10205;49.678;6.560;2023-04-15T02:21:19;98951.00;;;13.90
20092;BMP180;10205;49.678;6.560;2023-04-15T02:23:46;98967.00;;;13.90
20092;BMP180;10205;49.678;6.560;2023-04-15T02:26:13;98972.00;;;13.90
20092;BMP180;10205;49.678;6.560;2023-04-15T02:28:41;98959.00;;;13.90
20092;BMP180;10205;49.678;6.560;2023-04-15T02:31:08;98959.00;;;13.90
20092;BMP180;10205;49.678;6.560;2023-04-15T02:33:35;98957.00;;;13.90
20092;BMP180;10205;49.678;6.560;2023-04-15T02:36:04;98936.00;;;13.80
20092;BMP180;10205;49.678;6.560;2023-04-15T02:38:32;98963.00;;;13.80
20092;BMP180;10205;49.678;6.560;2023-04-15T02:40:59;98956.00;;;13.80
20092;BMP180;10205;49.678;6.560;2023-04-15T02:43:27;98947.00;;;13.80
20092;BMP180;10205;49.678;6.560;2023-04-15T02:45:54;98948.00;;;13.80
20092;BMP180;10205;49.678;6.560;2023-04-15T02:48:21;98950.00;;;13.80
20092;BMP180;10205;49.678;6.560;2023-04-15T02:50:49;98946.00;;;13.70
20092;BMP180;10205;49.678;6.560;2023-04-15T02:53:17;98953.00;;;13.70
20092;BMP180;10205;49.678;6.560;2023-04-15T02:55:44;98958.00;;;13.70
20092;BMP180;10205;49.678;6.560;2023-04-15T02:58:12;98961.00;;;13.70
20092;BMP180;10205;49.678;6.560;2023-04-15T03:00:42;98958.00;;;13.60
20092;BMP180;10205;49.678;6.560;2023-04-15T03:03:09;98955.00;;;13.60
20092;BMP180;10205;49.678;6.560;2023-04-15T03:05:36;98955.00;;;13.60
20092;BMP180;10205;49.678;6.560;2023-04-15T03:08:04;98958.00;;;13.50
20092;BMP180;10205;49.678;6.560;2023-04-15T03:10:32;98960.00;;;13.50
20092;BMP180;10205;49.678;6.560;2023-04-15T03:13:00;98963.00;;;13.50
20092;BMP180;10205;49.678;6.560;2023-04-15T03:15:27;98968.00;;;13.40
20092;BMP180;10205;49.678;6.560;2023-04-15T03:17:54;98969.00;;;13.40
20092;BMP180;10205;49.678;6.560;2023-04-15T03:20:21;98970.00;;;13.40
20092;BMP180;10205;49.678;6.560;2023-04-15T03:22:49;98964.00;;;13.40
20092;BMP180;10205;49.678;6.560;2023-04-15T03:25:16;98966.00;;;13.30
20092;BMP180;10205;49.678;6.560;2023-04-15T03:27:44;98972.00;;;13.30
20092;BMP180;10205;49.678;6.560;2023-04-15T03:30:12;98976.00;;;13.30
20092;BMP180;10205;49.678;6.560;2023-04-15T03:32:39;98974.00;;;13.30
20092;BMP180;10205;49.678;6.560;2023-04-15T03:35:07;98969.00;;;13.20
20092;BMP180;10205;49.678;6.560;2023-04-15T03:37:35;98974.00;;;13.20
20092;BMP180;10205;49.678;6.560;2023-04-15T03:40:03;98968.00;;;13.20
20092;BMP180;10205;49.678;6.560;2023-04-15T03:42:30;98968.00;;;13.20
20092;BMP180;10205;49.678;6.560;2023-04-15T03:44:58;98970.00;;;13.10
20092;BMP180;10205;49.678;6.560;2023-04-15T03:47:26;98968.00;;;13.10
20092;BMP180;10205;49.678;6.560;2023-04-15T03:49:53;98963.00;;;13.10
20092;BMP180;10205;49.678;6.560;2023-04-15T03:52:20;98972.00;;;13.10
20092;BMP180;10205;49.678;6.560;2023-04-15T03:54:47;98976.00;;;13.00
20092;BMP180;10205;49.678;6.560;2023-04-15T03:57:14;98978.00;;;13.00
20092;BMP180;10205;49.678;6.560;2023-04-15T03:59:41;98970.00;;;12.90
20092;BMP180;10205;49.678;6.560;2023-04-15T04:02:10;98966.00;;;12.90
20092;BMP180;10205;49.678;6.560;2023-04-15T04:04:39;98970.00;;;12.80
20092;BMP180;10205;49.678;6.560;2023-04-15T04:07:06;98977.00;;;12.80
20092;BMP180;10205;49.678;6.560;2023-04-15T04:09:33;98973.00;;;12.80
20092;BMP180;10205;49.678;6.560;2023-04-15T04:12:01;98971.00;;;12.70
20092;BMP180;10205;49.678;6.560;2023-04-15T04:14:29;98981.00;;;12.70
20092;BMP180;10205;49.678;6.560;2023-04-15T04:16:56;98980.00;;;12.70
20092;BMP180;10205;49.678;6.560;2023-04-15T04:19:24;98984.00;;;12.70
20092;BMP180;10205;49.678;6.560;2023-04-15T04:21:51;98988.00;;;12.60
20092;BMP180;10205;49.678;6.560;2023-04-15T04:24:19;98991.00;;;12.60
20092;BMP180;10205;49.678;6.560;2023-04-15T04:26:46;98991.00;;;12.60
20092;BMP180;10205;49.678;6.560;2023-04-15T04:29:13;99000.00;;;12.50
20092;BMP180;10205;49.678;6.560;2023-04-15T04:31:40;98998.00;;;12.50
20092;BMP180;10205;49.678;6.560;2023-04-15T04:34:07;98993.00;;;12.50
20092;BMP180;10205;49.678;6.560;2023-04-15T04:36:36;99008.00;;;12.50
20092;BMP180;10205;49.678;6.560;2023-04-15T04:39:03;99000.00;;;12.50
20092;BMP180;10205;49.678;6.560;2023-04-15T04:41:30;99009.00;;;12.40
20092;BMP180;10205;49.678;6.560;2023-04-15T04:43:58;99009.00;;;12.40
20092;BMP180;10205;49.678;6.560;2023-04-15T04:46:25;99012.00;;;12.40
20092;BMP180;10205;49.678;6.560;2023-04-15T04:48:52;99017.00;;;12.30
20092;BMP180;10205;49.678;6.560;2023-04-15T04:51:19;99014.00;;;12.30
20092;BMP180;10205;49.678;6.560;2023-04-15T04:53:48;99009.00;;;12.30
20092;BMP180;10205;49.678;6.560;2023-04-15T04:56:15;99024.00;;;12.20
20092;BMP180;10205;49.678;6.560;2023-04-15T04:58:42;99001.00;;;12.20
20092;BMP180;10205;49.678;6.560;2023-04-15T05:01:10;99019.00;;;12.20
20092;BMP180;10205;49.678;6.560;2023-04-15T05:03:38;99026.00;;;12.20
20092;BMP180;10205;49.678;6.560;2023-04-15T05:06:05;99025.00;;;12.10
20092;BMP180;10205;49.678;6.560;2023-04-15T05:08:33;99021.00;;;12.10
20092;BMP180;10205;49.678;6.560;2023-04-15T05:11:02;99028.00;;;12.10
20092;BMP180;10205;49.678;6.560;2023-04-15T05:13:30;99033.00;;;12.10
20092;BMP180;10205;49.678;6.560;2023-04-15T05:15:57;99024.00;;;12.00
20092;BMP180;10205;49.678;6.560;2023-04-15T05:18:24;99021.00;;;12.00
20092;BMP180;10205;49.678;6.560;2023-04-15T05:20:52;99054.00;;;12.00
20092;BMP180;10205;49.678;6.560;2023-04-15T05:23:19;99030.00;;;12.00
20092;BMP180;10205;49.678;6.560;2023-04-15T05:25:46;99039.00;;;11.90
20092;BMP180;10205;49.678;6.560;2023-04-15T05:28:14;99037.00;;;11.90
20092;BMP180;10205;49.678;6.560;2023-04-15T05:30:42;99044.00;;;11.90
20092;BMP180;10205;49.678;6.560;2023-04-15T05:33:09;99066.00;;;11.90
20092;BMP180;10205;49.678;6.560;2023-04-15T05:35:39;99042.00;;;11.80
20092;BMP180;10205;49.678;6.560;2023-04-15T05:38:06;99051.00;;;11.80
20092;BMP180;10205;49.678;6.560;2023-04-15T05:40:33;99055.00;;;11.80
20092;BMP180;10205;49.678;6.560;2023-04-15T05:43:01;99039.00;;;11.80
20092;BMP180;10205;49.678;6.560;2023-04-15T05:45:30;99054.00;;;11.70
20092;BMP180;10205;49.678;6.560;2023-04-15T05:47:57;99059.00;;;11.70
20092;BMP180;10205;49.678;6.560;2023-04-15T05:50:27;99074.00;;;11.70
20092;BMP180;10205;49.678;6.560;2023-04-15T05:52:55;99031.00;;;11.70
20092;BMP180;10205;49.678;6.560;2023-04-15T05:55:22;99047.00;;;11.70
20092;BMP180;10205;49.678;6.560;2023-04-15T05:57:49;99061.00;;;11.60
20092;BMP180;10205;49.678;6.560;2023-04-15T06:00:17;99064.00;;;11.60
20092;BMP180;10205;49.678;6.560;2023-04-15T06:02:46;99062.00;;;11.60
20092;BMP180;10205;49.678;6.560;2023-04-15T06:05:13;99061.00;;;11.60
20092;BMP180;10205;49.678;6.560;2023-04-15T06:07:40;99073.00;;;11.60
20092;BMP180;10205;49.678;6.560;2023-04-15T06:10:09;99077.00;;;11.60
20092;BMP180;10205;49.678;6.560;2023-04-15T06:12:36;99078.00;;;11.60
20092;BMP180;10205;49.678;6.560;2023-04-15T06:15:05;99075.00;;;11.60
20092;BMP180;10205;49.678;6.560;2023-04-15T06:17:34;99082.00;;;11.60
20092;BMP180;10205;49.678;6.560;2023-04-15T06:20:05;99029.00;;;11.60
20092;BMP180;10205;49.678;6.560;2023-04-15T06:22:33;99080.00;;;11.60
20092;BMP180;10205;49.678;6.560;2023-04-15T06:25:00;99078.00;;;11.60
20092;BMP180;10205;49.678;6.560;2023-04-15T06:27:28;99071.00;;;11.60
20092;BMP180;10205;49.678;6.560;2023-04-15T06:29:55;99079.00;;;11.60
20092;BMP180;10205;49.678;6.560;2023-04-15T06:32:22;99079.00;;;11.60
20092;BMP180;10205;49.678;6.560;2023-04-15T06:34:49;99082.00;;;11.60
20092;BMP180;10205;49.678;6.560;2023-04-15T06:37:18;99078.00;;;11.60
20092;BMP180;10205;49.678;6.560;2023-04-15T06:39:45;99090.00;;;11.70
20092;BMP180;10205;49.678;6.560;2023-04-15T06:42:12;99094.00;;;11.70
20092;BMP180;10205;49.678;6.560;2023-04-15T06:44:40;99096.00;;;11.70
20092;BMP180;10205;49.678;6.560;2023-04-15T06:47:07;99099.00;;;11.70
20092;BMP180;10205;49.678;6.560;2023-04-15T06:49:34;99098.00;;;11.70
20092;BMP180;10205;49.678;6.560;2023-04-15T06:52:01;99105.00;;;11.70
20092;BMP180;10205;49.678;6.560;2023-04-15T06:54:31;99108.00;;;11.70
20092;BMP180;10205;49.678;6.560;2023-04-15T06:56:58;99119.00;;;11.70
20092;BMP180;10205;49.678;6.560;2023-04-15T06:59:25;99110.00;;;11.80
20092;BMP180;10205;49.678;6.560;2023-04-15T07:01:53;99107.00;;;11.80
20092;BMP180;10205;49.678;6.560;2023-04-15T07:04:20;99114.00;;;11.80
20092;BMP180;10205;49.678;6.560;2023-04-15T07:06:47;99112.00;;;11.90
20092;BMP180;10205;49.678;6.560;2023-04-15T07:09:14;99122.00;;;11.90
20092;BMP180;10205;49.678;6.560;2023-04-15T07:11:43;99118.00;;;11.90
20092;BMP180;10205;49.678;6.560;2023-04-15T07:14:10;99120.00;;;12.00
20092;BMP180;10205;49.678;6.560;2023-04-15T07:16:37;99115.00;;;12.00
20092;BMP180;10205;49.678;6.560;2023-04-15T07:19:04;99118.00;;;12.00
20092;BMP180;10205;49.678;6.560;2023-04-15T07:21:32;99124.00;;;12.00
20092;BMP180;10205;49.678;6.560;2023-04-15T07:23:59;99125.00;;;12.10
20092;BMP180;10205;49.678;6.560;2023-04-15T07:26:26;99115.00;;;12.10
20092;BMP180;10205;49.678;6.560;2023-04-15T07:28:55;99119.00;;;12.10
20092;BMP180;10205;49.678;6.560;2023-04-15T07:31:22;99121.00;;;12.20
20092;BMP180;10205;49.678;6.560;2023-04-15T07:33:49;99122.00;;;12.20
20092;BMP180;10205;49.678;6.560;2023-04-15T07:36:17;99126.00;;;12.30
20092;BMP180;10205;49.678;6.560;2023-04-15T07:38:44;99132.00;;;12.30
20092;BMP180;10205;49.678;6.560;2023-04-15T07:41:11;99130.00;;;12.40
20092;BMP180;10205;49.678;6.560;2023-04-15T07:43:39;99126.00;;;12.40
20092;BMP180;10205;49.678;6.560;2023-04-15T07:46:07;99128.00;;;12.50
20092;BMP180;10205;49.678;6.560;2023-04-15T07:48:34;99142.00;;;12.50
20092;BMP180;10205;49.678;6.560;2023-04-15T07:51:01;99135.00;;;12.60
20092;BMP180;10205;49.678;6.560;2023-04-15T07:53:31;99136.00;;;12.70
20092;BMP180;10205;49.678;6.560;2023-04-15T07:55:58;99136.00;;;12.70
20092;BMP180;10205;49.678;6.560;2023-04-15T07:58:26;99138.00;;;12.70
20092;BMP180;10205;49.678;6.560;2023-04-15T08:00:53;99136.00;;;12.80
20092;BMP180;10205;49.678;6.560;2023-04-15T08:03:22;99146.00;;;12.90
20092;BMP180;10205;49.678;6.560;2023-04-15T08:05:49;99142.00;;;12.90
20092;BMP180;10205;49.678;6.560;2023-04-15T08:08:16;99149.00;;;13.00
20092;BMP180;10205;49.678;6.560;2023-04-15T08:10:44;99154.00;;;13.10
20092;BMP180;10205;49.678;6.560;2023-04-15T08:13:11;99142.00;;;13.10
20092;BMP180;10205;49.678;6.560;2023-04-15T08:15:38;99147.00;;;13.20
20092;BMP180;10205;49.678;6.560;2023-04-15T08:18:06;99143.00;;;13.30
20092;BMP180;10205;49.678;6.560;2023-04-15T08:20:34;99135.00;;;13.40
20092;BMP180;10205;49.678;6.560;2023-04-15T08:23:02;99137.00;;;13.50
20092;BMP180;10205;49.678;6.560;2023-04-15T08:25:29;99144.00;;;13.50
20092;BMP180;10205;49.678;6.560;2023-04-15T08:27:56;99140.00;;;13.60
20092;BMP180;10205;49.678;6.560;2023-04-15T08:30:23;99143.00;;;13.70
20092;BMP180;10205;49.678;6.560;2023-04-15T08:32:51;99146.00;;;13.80
20092;BMP180;10205;49.678;6.560;2023-04-15T08:35:18;99144.00;;;13.90
20092;BMP180;10205;49.678;6.560;2023-04-15T08:37:46;99146.00;;;14.00
20092;BMP180;10205;49.678;6.560;2023-04-15T08:40:14;99152.00;;;14.00
20092;BMP180;10205;49.678;6.560;2023-04-15T08:42:47;99150.00;;;14.10
20092;BMP180;10205;49.678;6.560;2023-04-15T08:45:16;99151.00;;;14.20
20092;BMP180;10205;49.678;6.560;2023-04-15T08:47:47;99153.00;;;14.30
20092;BMP180;10205;49.678;6.560;2023-04-15T08:50:15;99154.00;;;14.40
20092;BMP180;10205;49.678;6.560;2023-04-15T08:52:43;99157.00;;;14.50
20092;BMP180;10205;49.678;6.560;2023-04-15T08:55:13;99155.00;;;14.60
20092;BMP180;10205;49.678;6.560;2023-04-15T08:57:41;99165.00;;;14.70
20092;BMP180;10205;49.678;6.560;2023-04-15T09:00:10;99160.00;;;14.80
20092;BMP180;10205;49.678;6.560;2023-04-15T09:02:38;99160.00;;;14.80
20092;BMP180;10205;49.678;6.560;2023-04-15T09:05:07;99161.00;;;14.90
20092;BMP180;10205;49.678;6.560;2023-04-15T09:07:34;99162.00;;;15.10
20092;BMP180;10205;49.678;6.560;2023-04-15T09:10:03;99154.00;;;15.20
20092;BMP180;10205;49.678;6.560;2023-04-15T09:12:33;99151.00;;;15.30
20092;BMP180;10205;49.678;6.560;2023-04-15T09:15:01;99168.00;;;15.30
20092;BMP180;10205;49.678;6.560;2023-04-15T09:17:32;99168.00;;;15.50
20092;BMP180;10205;49.678;6.560;2023-04-15T09:20:10;99166.00;;;15.50
20092;BMP180;10205;49.678;6.560;2023-04-15T09:22:39;99173.00;;;15.60
20092;BMP180;10205;49.678;6.560;2023-04-15T09:25:26;99185.00;;;15.80
20092;BMP180;10205;49.678;6.560;2023-04-15T09:27:57;99170.00;;;15.90
20092;BMP180;10205;49.678;6.560;2023-04-15T09:30:24;99179.00;;;16.00
20092;BMP180;10205;49.678;6.560;2023-04-15T09:32:54;99187.00;;;16.10
20092;BMP180;10205;49.678;6.560;2023-04-15T09:35:23;99185.00;;;16.20
20092;BMP180;10205;49.678;6.560;2023-04-15T09:37:51;99189.00;;;16.30
20092;BMP180;10205;49.678;6.560;2023-04-15T09:40:32;99182.00;;;16.40
20092;BMP180;10205;49.678;6.560;2023-04-15T09:43:01;99184.00;;;16.40
20092;BMP180;10205;49.678;6.560;2023-04-15T09:45:30;99189.00;;;16.60
20092;BMP180;10205;49.678;6.560;2023-04-15T09:48:13;99186.00;;;16.70
20092;BMP180;10205;49.678;6.560;2023-04-15T09:50:41;99198.00;;;16.80
20092;BMP180;10205;49.678;6.560;2023-04-15T09:53:09;99190.00;;;16.90
20092;BMP180;10205;49.678;6.560;2023-04-15T09:55:37;99186.00;;;17.00
20092;BMP180;10205;49.678;6.560;2023-04-15T09:58:17;99198.00;;;17.10
20092;BMP180;10205;49.678;6.560;2023-04-15T10:00:47;99204.00;;;17.20
20092;BMP180;10205;49.678;6.560;2023-04-15T10:03:19;99209.00;;;17.30
20092;BMP180;10205;49.678;6.560;2023-04-15T10:05:49;99200.00;;;17.40
20092;BMP180;10205;49.678;6.560;2023-04-15T10:08:18;99198.00;;;17.50
20092;BMP180;10205;49.678;6.560;2023-04-15T10:10:47;99204.00;;;17.60
20092;BMP180;10205;49.678;6.560;2023-04-15T10:13:19;99208.00;;;17.70
20092;BMP180;10205;49.678;6.560;2023-04-15T10:15:50;99207.00;;;17.80
20092;BMP180;10205;49.678;6.560;2023-04-15T10:18:20;99197.00;;;17.90
20092;BMP180;10205;49.678;6.560;2023-04-15T10:20:50;99199.00;;;18.00
20092;BMP180;10205;49.678;6.560;2023-04-15T10:23:18;99200.00;;;18.10
20092;BMP180;10205;49.678;6.560;2023-04-15T10:25:47;99203.00;;;18.20
20092;BMP180;10205;49.678;6.560;2023-04-15T10:28:16;99205.00;;;18.30
20092;BMP180;10205;49.678;6.560;2023-04-15T10:30:44;99208.00;;;18.40
20092;BMP180;10205;49.678;6.560;2023-04-15T10:33:13;99209.00;;;18.50
20092;BMP180;10205;49.678;6.560;2023-04-15T10:35:43;99217.00;;;18.60
20092;BMP180;10205;49.678;6.560;2023-04-15T10:38:32;99211.00;;;18.70
20092;BMP180;10205;49.678;6.560;2023-04-15T10:41:17;99222.00;;;18.80
20092;BMP180;10205;49.678;6.560;2023-04-15T10:43:49;99224.00;;;18.90
20092;BMP180;10205;49.678;6.560;2023-04-15T10:46:36;99221.00;;;19.00
20092;BMP180;10205;49.678;6.560;2023-04-15T10:49:08;99224.00;;;19.10
20092;BMP180;10205;49.678;6.560;2023-04-15T10:51:39;99227.00;;;19.20
20092;BMP180;10205;49.678;6.560;2023-04-15T10:54:13;99230.00;;;19.30
20092;BMP180;10205;49.678;6.560;2023-04-15T10:56:41;99221.00;;;19.30
20092;BMP180;10205;49.678;6.560;2023-04-15T10:59:11;99242.00;;;19.40
20092;BMP180;10205;49.678;6.560;2023-04-15T11:01:52;99229.00;;;19.50
20092;BMP180;10205;49.678;6.560;2023-04-15T11:04:53;99233.00;;;19.60
20092;BMP180;10205;49.678;6.560;2023-04-15T11:07:37;99233.00;;;19.60
20092;BMP180;10205;49.678;6.560;2023-04-15T11:10:50;99232.00;;;19.70
20092;BMP180;10205;49.678;6.560;2023-04-15T11:13:22;99235.00;;;19.70
20092;BMP180;10205;49.678;6.560;2023-04-15T11:15:58;99230.00;;;19.80
20092;BMP180;10205;49.678;6.560;2023-04-15T11:18:32;99235.00;;;19.90
20092;BMP180;10205;49.678;6.560;2023-04-15T11:21:05;99245.00;;;20.00
20092;BMP180;10205;49.678;6.560;2023-04-15T11:23:37;99261.00;;;20.00
20092;BMP180;10205;49.678;6.560;2023-04-15T11:26:06;99261.00;;;20.10
20092;BMP180;10205;49.678;6.560;2023-04-15T11:28:37;99268.00;;;20.10
20092;BMP180;10205;49.678;6.560;2023-04-15T11:31:10;99259.00;;;20.20
20092;BMP180;10205;49.678;6.560;2023-04-15T11:33:44;99258.00;;;20.30
20092;BMP180;10205;49.678;6.560;2023-04-15T11:36:12;99244.00;;;20.40
20092;BMP180;10205;49.678;6.560;2023-04-15T11:38:43;99271.00;;;20.40
20092;BMP180;10205;49.678;6.560;2023-04-15T11:41:11;99287.00;;;20.50
20092;BMP180;10205;49.678;6.560;2023-04-15T11:43:38;99278.00;;;20.50
20092;BMP180;10205;49.678;6.560;2023-04-15T11:46:07;99270.00;;;20.60
20092;BMP180;10205;49.678;6.560;2023-04-15T11:48:35;99277.00;;;20.60
20092;BMP180;10205;49.678;6.560;2023-04-15T11:51:05;99288.00;;;20.70
20092;BMP180;10205;49.678;6.560;2023-04-15T11:53:38;99282.00;;;20.70
20092;BMP180;10205;49.678;6.560;2023-04-15T11:56:07;99287.00;;;20.70
20092;BMP180;10205;49.678;6.560;2023-04-15T11:58:37;99294.00;;;20.80
20092;BMP180;10205;49.678;6.560;2023-04-15T12:01:07;99299.00;;;20.80
20092;BMP180;10205;49.678;6.560;2023-04-15T12:03:38;99296.00;;;20.90
20092;BMP180;10205;49.678;6.560;2023-04-15T12:06:12;99285.00;;;20.90
20092;BMP180;10205;49.678;6.560;2023-04-15T12:09:00;99317.00;;;20.90
20092;BMP180;10205;49.678;6.560;2023-04-15T12:14:21;99327.00;;;21.00
20092;BMP180;10205;49.678;6.560;2023-04-15T12:16:51;99326.00;;;21.00
20092;BMP180;10205;49.678;6.560;2023-04-15T12:19:24;99340.00;;;21.00
20092;BMP180;10205;49.678;6.560;2023-04-15T12:21:57;99345.00;;;21.00
20092;BMP180;10205;49.678;6.560;2023-04-15T12:24:24;99338.00;;;21.10
20092;BMP180;10205;49.678;6.560;2023-04-15T12:26:54;99342.00;;;21.10
20092;BMP180;10205;49.678;6.560;2023-04-15T12:29:26;99359.00;;;21.10
20092;BMP180;10205;49.678;6.560;2023-04-15T12:31:57;99368.00;;;21.20
20092;BMP180;10205;49.678;6.560;2023-04-15T12:34:30;99369.00;;;21.20
20092;BMP180;10205;49.678;6.560;2023-04-15T12:36:59;99367.00;;;21.20
20092;BMP180;10205;49.678;6.560;2023-04-15T12:39:29;99367.00;;;21.30
20092;BMP180;10205;49.678;6.560;2023-04-15T12:41:57;99376.00;;;21.30
20092;BMP180;10205;49.678;6.560;2023-04-15T12:44:25;99376.00;;;21.30
20092;BMP180;10205;49.678;6.560;2023-04-15T12:46:54;99385.00;;;21.40
20092;BMP180;10205;49.678;6.560;2023-04-15T12:49:23;99376.00;;;21.40
20092;BMP180;10205;49.678;6.560;2023-04-15T12:51:53;99380.00;;;21.40
20092;BMP180;10205;49.678;6.560;2023-04-15T12:54:20;99397.00;;;21.40
20092;BMP180;10205;49.678;6.560;2023-04-15T12:56:49;99406.00;;;21.40
20092;BMP180;10205;49.678;6.560;2023-04-15T12:59:17;99403.00;;;21.40
20092;BMP180;10205;49.678;6.560;2023-04-15T13:01:45;99424.00;;;21.40
20092;BMP180;10205;49.678;6.560;2023-04-15T13:04:15;99426.00;;;21.40
20092;BMP180;10205;49.678;6.560;2023-04-15T13:06:44;99431.00;;;21.40
20092;BMP180;10205;49.678;6.560;2023-04-15T13:09:11;99428.00;;;21.40
20092;BMP180;10205;49.678;6.560;2023-04-15T13:11:38;99433.00;;;21.40
20092;BMP180;10205;49.678;6.560;2023-04-15T13:14:08;99431.00;;;21.40
20092;BMP180;10205;49.678;6.560;2023-04-15T13:16:36;99437.00;;;21.40
20092;BMP180;10205;49.678;6.560;2023-04-15T13:19:03;99451.00;;;21.40
20092;BMP180;10205;49.678;6.560;2023-04-15T13:21:32;99439.00;;;21.50
20092;BMP180;10205;49.678;6.560;2023-04-15T13:24:00;99451.00;;;21.50
20092;BMP180;10205;49.678;6.560;2023-04-15T13:26:27;99454.00;;;21.50
20092;BMP180;10205;49.678;6.560;2023-04-15T13:28:56;99468.00;;;21.50
20092;BMP180;10205;49.678;6.560;2023-04-15T13:31:23;99465.00;;;21.50
20092;BMP180;10205;49.678;6.560;2023-04-15T13:33:50;99460.00;;;21.50
20092;BMP180;10205;49.678;6.560;2023-04-15T13:36:17;99463.00;;;21.50
20092;BMP180;10205;49.678;6.560;2023-04-15T13:38:45;99470.00;;;21.50
20092;BMP180;10205;49.678;6.560;2023-04-15T13:41:13;99472.00;;;21.50
20092;BMP180;10205;49.678;6.560;2023-04-15T13:43:40;99472.00;;;21.50
20092;BMP180;10205;49.678;6.560;2023-04-15T13:46:07;99476.00;;;21.50
20092;BMP180;10205;49.678;6.560;2023-04-15T13:48:34;99484.00;;;21.50
20092;BMP180;10205;49.678;6.560;2023-04-15T13:51:01;99487.00;;;21.50
20092;BMP180;10205;49.678;6.560;2023-04-15T13:53:28;99479.00;;;21.50
20092;BMP180;10205;49.678;6.560;2023-04-15T13:55:57;99490.00;;;21.50
20092;BMP180;10205;49.678;6.560;2023-04-15T13:58:24;99499.00;;;21.50
20092;BMP180;10205;49.678;6.560;2023-04-15T14:00:51;99494.00;;;21.50
20092;BMP180;10205;49.678;6.560;2023-04-15T14:03:19;99505.00;;;21.50
20092;BMP180;10205;49.678;6.560;2023-04-15T14:05:46;99503.00;;;21.50
20092;BMP180;10205;49.678;6.560;2023-04-15T14:08:18;99495.00;;;21.50
20092;BMP180;10205;49.678;6.560;2023-04-15T14:10:47;99502.00;;;21.50
20092;BMP180;10205;49.678;6.560;2023-04-15T14:13:16;99511.00;;;21.50
20092;BMP180;10205;49.678;6.560;2023-04-15T14:15:44;99515.00;;;21.50
20092;BMP180;10205;49.678;6.560;2023-04-15T14:18:11;99520.00;;;21.50
20092;BMP180;10205;49.678;6.560;2023-04-15T14:20:38;99518.00;;;21.50